createdAt,value
2022-12-25T00:00:13.898Z,274.20
2022-12-25T00:02:45.960Z,337.27
2022-12-25T00:05:13.137Z,284.90
2022-12-25T00:07:41.806Z,288.20
2022-12-25T00:10:16.338Z,290.80
2022-12-25T00:12:43.713Z,231.27
2022-12-25T00:15:10.503Z,214.60
2022-12-25T00:17:39.103Z,220.65
2022-12-25T00:20:09.368Z,238.73
2022-12-25T00:22:36.109Z,220.68
2022-12-25T00:25:02.850Z,148.57
2022-12-25T00:27:31.588Z,231.93
2022-12-25T00:29:58.268Z,180.30
2022-12-25T00:32:24.866Z,176.85
2022-12-25T00:34:51.661Z,188.23
2022-12-25T00:37:21.321Z,170.52
2022-12-25T00:39:48.657Z,126.97
2022-12-25T00:42:15.423Z,161.35
2022-12-25T00:44:42.099Z,194.07
2022-12-25T00:47:08.979Z,208.68
2022-12-25T00:49:39.069Z,199.50
2022-12-25T00:52:05.887Z,189.23
2022-12-25T00:54:32.584Z,202.63
2022-12-25T00:56:59.277Z,176.18
2022-12-25T00:59:25.890Z,169.98
2022-12-25T01:01:52.748Z,191.35
2022-12-25T01:04:19.597Z,160.35
2022-12-25T01:06:46.238Z,216.60
2022-12-25T01:09:12.927Z,175.65
2022-12-25T01:11:40.003Z,198.18
2022-12-25T01:14:07.231Z,262.38
2022-12-25T01:16:33.977Z,192.98
2022-12-25T01:19:02.112Z,226.10
2022-12-25T01:21:28.861Z,214.65
2022-12-25T01:23:55.954Z,184.88
2022-12-25T01:26:23.720Z,140.27
2022-12-25T01:28:51.075Z,219.30
2022-12-25T01:31:21.717Z,208.15
2022-12-25T01:33:48.460Z,236.77
2022-12-25T01:36:17.245Z,170.55
2022-12-25T01:38:44.095Z,207.07
2022-12-25T01:41:11.306Z,198.30
2022-12-25T01:43:58.976Z,200.85
2022-12-25T01:46:25.749Z,208.43
2022-12-25T01:48:53.854Z,197.93
2022-12-25T01:51:25.854Z,200.45
2022-12-25T01:53:53.235Z,180.35
2022-12-25T01:56:19.916Z,138.65
2022-12-25T01:58:46.680Z,107.72
2022-12-25T02:03:49.356Z,103.63
2022-12-25T02:06:16.082Z,124.95
2022-12-25T02:11:15.127Z,122.93
2022-12-25T02:13:41.671Z,154.82
2022-12-25T02:16:15.817Z,132.95
2022-12-25T02:18:51.939Z,120.80
2022-12-25T02:21:18.567Z,124.93
2022-12-25T02:23:53.092Z,98.93
2022-12-25T02:28:46.260Z,121.68
2022-12-25T02:31:24.450Z,117.38
2022-12-25T02:34:02.073Z,109.45
2022-12-25T02:36:47.671Z,128.13
2022-12-25T02:39:32.868Z,138.88
2022-12-25T02:42:02.868Z,129.50
2022-12-25T02:44:31.247Z,129.82
2022-12-25T02:46:59.624Z,138.73
2022-12-25T02:49:27.293Z,144.30
2022-12-25T02:52:04.897Z,143.27
2022-12-25T02:54:33.820Z,136.80
2022-12-25T02:57:01.397Z,155.07
2022-12-25T02:59:32.079Z,147.35
2022-12-25T03:01:59.201Z,164.07
2022-12-25T03:04:28.036Z,146.77
2022-12-25T03:07:00.784Z,146.98
2022-12-25T03:09:29.314Z,186.45
2022-12-25T03:12:02.939Z,168.43
2022-12-25T03:14:29.500Z,186.67
2022-12-25T03:17:01.011Z,181.23
2022-12-25T03:19:36.023Z,181.10
2022-12-25T03:22:03.685Z,179.45
2022-12-25T03:24:30.743Z,186.57
2022-12-25T03:26:57.751Z,223.13
2022-12-25T03:29:31.536Z,178.65
2022-12-25T03:32:03.931Z,174.85
2022-12-25T03:34:39.887Z,137.32
2022-12-25T03:37:22.418Z,166.95
2022-12-25T03:40:01.106Z,172.10
2022-12-25T03:42:31.123Z,196.02
2022-12-25T03:45:04.214Z,177.68
2022-12-25T03:47:43.024Z,219.85
2022-12-25T03:50:12.432Z,195.02
2022-12-25T03:52:39.963Z,233.52
2022-12-25T03:55:08.497Z,188.55
2022-12-25T03:57:39.023Z,179.15
2022-12-25T04:00:06.190Z,217.98
2022-12-25T04:02:32.961Z,187.30
2022-12-25T04:04:59.588Z,190.77
2022-12-25T04:07:26.077Z,265.02
2022-12-25T04:09:52.668Z,180.57
2022-12-25T04:12:19.208Z,151.70
2022-12-25T04:14:45.958Z,123.10
2022-12-25T04:17:12.440Z,201.55
2022-12-25T04:19:39.038Z,171.45
2022-12-25T04:22:05.529Z,136.15
2022-12-25T04:24:32.053Z,152.63
2022-12-25T04:26:58.867Z,147.00
2022-12-25T04:29:26.283Z,139.60
2022-12-25T04:31:54.984Z,193.82
2022-12-25T04:34:21.513Z,135.63
2022-12-25T04:36:48.189Z,124.43
2022-12-25T04:39:14.832Z,253.95
2022-12-25T04:41:41.375Z,183.93
2022-12-25T04:44:08.932Z,204.02
2022-12-25T04:46:35.683Z,164.15
2022-12-25T04:49:02.445Z,140.07
2022-12-25T04:51:29.393Z,130.25
2022-12-25T04:53:56.173Z,156.68
2022-12-25T04:56:24.010Z,145.25
2022-12-25T04:58:53.117Z,160.85
2022-12-25T05:01:19.759Z,159.93
2022-12-25T05:03:51.178Z,154.85
2022-12-25T05:06:17.763Z,153.02
2022-12-25T05:08:44.323Z,166.25
2022-12-25T05:11:14.581Z,185.93
2022-12-25T05:13:41.996Z,165.90
2022-12-25T05:16:14.242Z,146.00
2022-12-25T05:18:40.922Z,162.20
2022-12-25T05:21:07.444Z,206.73
2022-12-25T05:23:35.682Z,180.07
2022-12-25T05:26:06.496Z,249.00
2022-12-25T05:28:36.161Z,219.63
2022-12-25T05:31:02.782Z,218.82
2022-12-25T05:33:29.580Z,200.65
2022-12-25T05:35:56.178Z,220.43
2022-12-25T05:38:22.769Z,225.00
2022-12-25T05:40:51.104Z,171.00
2022-12-25T05:43:17.609Z,192.05
2022-12-25T05:45:44.187Z,183.65
2022-12-25T05:48:12.054Z,206.68
2022-12-25T05:50:38.599Z,177.52
2022-12-25T05:53:08.267Z,193.80
2022-12-25T05:55:39.036Z,190.50
2022-12-25T05:58:06.199Z,206.52
2022-12-25T06:00:32.937Z,180.07
2022-12-25T06:02:59.660Z,202.23
2022-12-25T06:05:26.793Z,219.13
2022-12-25T06:07:54.098Z,208.60
2022-12-25T06:10:20.669Z,180.57
2022-12-25T06:12:47.354Z,192.52
2022-12-25T06:15:13.946Z,163.20
2022-12-25T06:17:40.628Z,207.80
2022-12-25T06:20:07.591Z,186.63
2022-12-25T06:22:34.545Z,158.07
2022-12-25T06:25:01.186Z,158.10
2022-12-25T06:27:27.924Z,194.13
2022-12-25T06:29:54.648Z,124.32
2022-12-25T06:32:21.289Z,147.10
2022-12-25T06:34:50.812Z,148.00
2022-12-25T06:37:18.266Z,153.05
2022-12-25T06:39:44.935Z,158.48
2022-12-25T06:42:11.452Z,161.00
2022-12-25T06:44:38.450Z,174.35
2022-12-25T06:47:05.385Z,192.90
2022-12-25T06:49:31.922Z,165.55
2022-12-25T06:52:01.590Z,114.95
2022-12-25T06:54:28.224Z,142.38
2022-12-25T06:56:54.819Z,139.32
2022-12-25T06:59:21.585Z,149.18
2022-12-25T07:01:50.068Z,125.30
2022-12-25T07:04:19.823Z,166.00
2022-12-25T07:06:46.329Z,169.02
2022-12-25T07:09:12.897Z,122.30
2022-12-25T07:11:39.892Z,137.20
2022-12-25T07:14:06.516Z,208.38
2022-12-25T07:19:07.216Z,116.63
2022-12-25T07:21:33.730Z,150.57
2022-12-25T07:24:00.860Z,186.88
2022-12-25T07:26:27.648Z,200.70
2022-12-25T07:28:55.591Z,134.15
2022-12-25T07:31:28.096Z,149.98
2022-12-25T07:33:54.985Z,147.50
2022-12-25T07:36:21.633Z,112.50
2022-12-25T07:38:49.007Z,144.05
2022-12-25T07:41:15.594Z,139.90
2022-12-25T07:43:44.011Z,142.93
2022-12-25T07:46:11.539Z,113.47
2022-12-25T07:48:38.511Z,148.75
2022-12-25T07:51:06.614Z,149.40
2022-12-25T07:53:35.592Z,109.70
2022-12-25T07:56:03.466Z,152.15
2022-12-25T07:58:30.366Z,145.95
2022-12-25T08:01:02.514Z,153.52
2022-12-25T08:03:29.938Z,156.75
2022-12-25T08:05:59.580Z,150.30
2022-12-25T08:08:30.748Z,156.63
2022-12-25T08:10:57.429Z,128.88
2022-12-25T08:13:24.078Z,117.80
2022-12-25T08:15:50.583Z,172.35
2022-12-25T08:18:17.209Z,130.05
2022-12-25T08:20:43.728Z,153.68
2022-12-25T08:23:10.232Z,145.55
2022-12-25T08:25:36.731Z,143.38
2022-12-25T08:28:05.029Z,144.15
2022-12-25T08:30:31.739Z,129.65
2022-12-25T08:32:58.659Z,99.93
2022-12-25T08:35:33.540Z,107.47
2022-12-25T08:38:03.657Z,97.43
2022-12-25T08:40:32.159Z,109.47
2022-12-25T08:42:59.374Z,82.90
2022-12-25T08:45:34.514Z,98.78
2022-12-25T08:48:01.593Z,94.18
2022-12-25T08:50:28.220Z,90.93
2022-12-25T08:52:54.823Z,100.85
2022-12-25T08:55:23.160Z,84.95
2022-12-25T08:57:52.233Z,77.53
2022-12-25T09:00:18.957Z,74.00
2022-12-25T09:02:50.250Z,91.85
2022-12-25T09:05:16.941Z,109.25
2022-12-25T09:07:43.496Z,95.28
2022-12-25T09:10:14.052Z,102.70
2022-12-25T09:12:40.724Z,100.55
2022-12-25T09:15:07.410Z,100.85
2022-12-25T09:17:33.973Z,99.00
2022-12-25T09:20:01.102Z,103.28
2022-12-25T09:22:27.803Z,111.50
2022-12-25T09:24:54.338Z,120.80
2022-12-25T09:27:21.505Z,133.75
2022-12-25T09:29:48.216Z,126.30
2022-12-25T09:32:15.069Z,110.30
2022-12-25T09:34:41.656Z,117.28
2022-12-25T09:37:11.722Z,124.57
2022-12-25T09:39:45.915Z,118.53
2022-12-25T09:42:21.459Z,120.82
2022-12-25T09:44:51.238Z,113.13
2022-12-25T09:47:22.237Z,117.03
2022-12-25T09:50:00.747Z,112.32
2022-12-25T09:52:27.318Z,111.35
2022-12-25T09:54:59.355Z,114.57
2022-12-25T09:57:26.163Z,112.95
2022-12-25T09:59:56.050Z,105.68
2022-12-25T10:02:41.538Z,105.97
2022-12-25T10:05:11.222Z,96.53
2022-12-25T10:07:43.694Z,94.20
2022-12-25T10:10:16.032Z,92.30
2022-12-25T10:12:42.513Z,93.95
2022-12-25T10:15:27.919Z,89.95
2022-12-25T10:18:13.073Z,94.10
2022-12-25T10:20:52.953Z,92.88
2022-12-25T10:23:24.332Z,89.68
2022-12-25T10:25:53.384Z,78.97
2022-12-25T10:28:23.917Z,83.93
2022-12-25T10:30:52.168Z,82.35
2022-12-25T10:33:19.946Z,77.75
2022-12-25T10:35:46.471Z,83.80
2022-12-25T10:38:14.948Z,78.05
2022-12-25T10:43:37.633Z,74.22
2022-12-25T10:46:09.717Z,82.18
2022-12-25T10:48:39.379Z,84.63
2022-12-25T10:51:07.844Z,82.13
2022-12-25T10:53:42.387Z,80.70
2022-12-25T10:56:16.584Z,73.15
2022-12-25T10:58:44.371Z,88.22
2022-12-25T11:01:12.373Z,91.32
2022-12-25T11:03:40.365Z,82.05
2022-12-25T11:06:07.850Z,82.57
2022-12-25T11:08:34.913Z,87.47
2022-12-25T11:11:03.602Z,87.97
2022-12-25T11:13:30.902Z,77.22
2022-12-25T11:16:21.418Z,74.30
2022-12-25T11:18:49.405Z,86.10
2022-12-25T11:21:23.664Z,92.13
2022-12-25T11:23:55.836Z,76.15
2022-12-25T11:26:26.473Z,78.88
2022-12-25T11:28:53.885Z,68.25
2022-12-25T11:31:22.611Z,68.70
2022-12-25T11:34:00.198Z,70.47
2022-12-25T11:36:43.329Z,68.53
2022-12-25T11:39:24.062Z,68.03
2022-12-25T11:41:56.177Z,76.90
2022-12-25T11:44:25.940Z,80.38
2022-12-25T11:46:56.621Z,77.43
2022-12-25T11:49:26.333Z,74.65
2022-12-25T11:51:55.678Z,72.95
2022-12-25T11:54:32.759Z,62.85
2022-12-25T11:57:07.033Z,64.90
2022-12-25T11:59:42.328Z,66.55
2022-12-25T12:02:21.927Z,79.45
2022-12-25T12:04:51.131Z,71.60
2022-12-25T12:07:24.679Z,60.55
2022-12-25T12:09:56.624Z,67.47
2022-12-25T12:12:44.867Z,59.33
2022-12-25T12:15:20.867Z,59.00
2022-12-25T12:17:47.633Z,56.65
2022-12-25T12:20:28.142Z,59.22
2022-12-25T12:22:55.141Z,57.17
2022-12-25T12:25:22.676Z,60.38
2022-12-25T12:28:01.245Z,64.03
2022-12-25T12:30:33.908Z,51.88
2022-12-25T12:33:01.867Z,53.60
2022-12-25T12:35:30.450Z,55.97
2022-12-25T12:38:02.089Z,55.05
2022-12-25T12:40:31.593Z,54.20
2022-12-25T12:43:06.659Z,52.25
2022-12-25T12:45:34.983Z,52.40
2022-12-25T12:48:04.612Z,48.67
2022-12-25T12:50:33.767Z,56.63
2022-12-25T12:53:01.572Z,52.53
2022-12-25T12:55:34.268Z,55.95
2022-12-25T12:58:02.321Z,51.50
2022-12-25T13:00:54.616Z,55.50
2022-12-25T13:03:36.548Z,54.10
2022-12-25T13:06:16.181Z,56.45
2022-12-25T13:08:45.742Z,50.40
2022-12-25T13:11:32.429Z,55.30
2022-12-25T13:14:01.536Z,56.97
2022-12-25T13:16:28.983Z,55.22
2022-12-25T13:18:56.029Z,55.58
2022-12-25T13:21:24.307Z,57.33
2022-12-25T13:23:56.469Z,57.80
2022-12-25T13:26:23.132Z,60.25
2022-12-25T13:28:49.712Z,60.30
2022-12-25T13:31:25.983Z,54.80
2022-12-25T13:33:58.973Z,55.08
2022-12-25T13:36:30.333Z,59.38
2022-12-25T13:38:58.334Z,54.55
2022-12-25T13:41:27.717Z,55.55
2022-12-25T13:43:57.960Z,58.17
2022-12-25T13:46:27.871Z,58.38
2022-12-25T13:48:58.579Z,61.53
2022-12-25T13:51:25.232Z,66.63
2022-12-25T13:53:52.411Z,62.63
2022-12-25T13:56:19.030Z,56.20
2022-12-25T13:58:49.971Z,61.55
2022-12-25T14:01:16.854Z,56.83
2022-12-25T14:03:45.874Z,58.72
2022-12-25T14:06:26.487Z,63.72
2022-12-25T14:08:54.801Z,63.20
2022-12-25T14:11:23.083Z,63.90
2022-12-25T14:13:51.383Z,70.57
2022-12-25T14:16:19.437Z,72.50
2022-12-25T14:18:53.602Z,63.15
2022-12-25T14:21:25.883Z,69.53
2022-12-25T14:23:52.589Z,76.82
2022-12-25T14:26:20.792Z,70.78
2022-12-25T14:28:52.298Z,75.18
2022-12-25T14:31:21.709Z,67.90
2022-12-25T14:33:48.875Z,64.88
2022-12-25T14:36:16.470Z,64.00
2022-12-25T14:38:43.359Z,70.78
2022-12-25T14:41:18.731Z,68.60
2022-12-25T14:43:53.860Z,64.60
2022-12-25T14:46:24.245Z,65.25
2022-12-25T14:48:59.551Z,73.05
2022-12-25T14:51:29.027Z,69.90
2022-12-25T14:53:57.006Z,57.80
2022-12-25T14:56:25.605Z,63.13
2022-12-25T14:58:56.719Z,65.40
2022-12-25T15:01:28.092Z,64.07
2022-12-25T15:04:27.196Z,59.03
2022-12-25T15:07:01.369Z,61.58
2022-12-25T15:09:29.098Z,69.05
2022-12-25T15:11:55.995Z,61.42
2022-12-25T15:14:23.346Z,65.72
2022-12-25T15:16:53.915Z,59.42
2022-12-25T15:19:29.264Z,65.38
2022-12-25T15:21:58.358Z,60.03
2022-12-25T15:24:26.647Z,62.08
2022-12-25T15:26:53.343Z,61.17
2022-12-25T15:29:38.182Z,64.00
2022-12-25T15:32:10.191Z,53.45
2022-12-25T15:34:36.677Z,58.67
2022-12-25T15:37:03.222Z,64.75
2022-12-25T15:39:29.720Z,63.08
2022-12-25T15:41:56.300Z,56.70
2022-12-25T15:44:23.156Z,64.35
2022-12-25T15:46:50.617Z,66.82
2022-12-25T15:49:17.528Z,67.65
2022-12-25T15:51:47.212Z,73.13
2022-12-25T15:54:13.822Z,67.57
2022-12-25T15:56:43.699Z,62.05
2022-12-25T15:59:12.240Z,66.63
2022-12-25T16:06:47.632Z,56.03
2022-12-25T16:09:15.209Z,65.85
2022-12-25T16:11:42.108Z,79.38
2022-12-25T16:14:09.036Z,73.25
2022-12-25T16:16:35.801Z,83.75
2022-12-25T16:19:02.738Z,74.90
2022-12-25T16:21:31.767Z,63.75
2022-12-25T16:23:58.402Z,62.00
2022-12-25T16:26:25.021Z,64.18
2022-12-25T16:28:51.542Z,73.53
2022-12-25T16:31:18.077Z,70.00
2022-12-25T16:33:44.878Z,74.70
2022-12-25T16:36:11.368Z,76.85
2022-12-25T16:38:38.158Z,71.35
2022-12-25T16:41:04.737Z,74.55
2022-12-25T16:43:31.282Z,70.70
2022-12-25T16:45:59.659Z,67.75
2022-12-25T16:48:29.598Z,62.15
2022-12-25T16:50:56.129Z,73.85
2022-12-25T16:53:22.607Z,70.95
2022-12-25T16:55:49.819Z,69.32
2022-12-25T16:58:21.645Z,71.85
2022-12-25T17:00:49.646Z,75.00
2022-12-25T17:03:16.517Z,66.35
2022-12-25T17:05:43.496Z,61.78
2022-12-25T17:08:10.007Z,76.72
2022-12-25T17:10:39.237Z,72.43
2022-12-25T17:13:05.841Z,64.47
2022-12-25T17:15:32.631Z,70.03
2022-12-25T17:20:39.557Z,59.58
2022-12-25T17:23:06.122Z,71.75
2022-12-25T17:25:35.909Z,71.28
2022-12-25T17:28:05.644Z,69.75
2022-12-25T17:30:36.713Z,72.70
2022-12-25T17:33:03.435Z,67.70
2022-12-25T17:35:30.005Z,56.40
2022-12-25T17:37:57.226Z,72.25
2022-12-25T17:40:23.855Z,72.18
2022-12-25T17:42:50.544Z,64.28
2022-12-25T17:45:21.162Z,80.10
2022-12-25T17:47:47.674Z,75.47
2022-12-25T17:50:15.621Z,69.85
2022-12-25T17:52:42.205Z,60.22
2022-12-25T17:55:12.643Z,54.83
2022-12-25T17:57:42.149Z,61.83
2022-12-25T18:00:08.905Z,62.60
2022-12-25T18:02:35.701Z,66.65
2022-12-25T18:05:02.335Z,59.10
2022-12-25T18:07:32.482Z,63.80
2022-12-25T18:09:59.399Z,62.28
2022-12-25T18:12:28.856Z,61.75
2022-12-25T18:14:55.497Z,72.25
2022-12-25T18:17:23.838Z,67.07
2022-12-25T18:19:50.671Z,72.90
2022-12-25T18:22:17.151Z,70.35
2022-12-25T18:24:43.639Z,71.55
2022-12-25T18:27:13.646Z,67.47
2022-12-25T18:29:40.118Z,64.93
2022-12-25T18:32:06.672Z,80.15
2022-12-25T18:34:33.277Z,78.15
2022-12-25T18:36:59.785Z,82.60
2022-12-25T18:39:26.214Z,74.07
2022-12-25T18:41:54.033Z,72.05
2022-12-25T18:46:51.948Z,66.25
2022-12-25T18:49:20.153Z,78.07
2022-12-25T18:51:48.522Z,62.80
2022-12-25T18:54:15.003Z,68.47
2022-12-25T18:56:41.559Z,80.22
2022-12-25T18:59:08.848Z,82.20
2022-12-25T19:01:35.536Z,73.60
2022-12-25T19:04:05.687Z,76.78
2022-12-25T19:06:35.559Z,68.75
2022-12-25T19:09:02.109Z,77.63
2022-12-25T19:11:28.633Z,70.15
2022-12-25T19:13:56.159Z,75.75
2022-12-25T19:16:25.997Z,70.80
2022-12-25T19:18:52.619Z,64.53
2022-12-25T19:21:19.169Z,73.75
2022-12-25T19:23:45.714Z,71.50
2022-12-25T19:26:12.315Z,54.58
2022-12-25T19:28:41.107Z,78.90
2022-12-25T19:31:08.741Z,72.55
2022-12-25T19:33:36.735Z,77.40
2022-12-25T19:36:04.815Z,78.70
2022-12-25T19:38:34.253Z,72.05
2022-12-25T19:41:05.150Z,59.13
2022-12-25T19:43:33.147Z,69.38
2022-12-25T19:46:00.569Z,69.30
2022-12-25T19:48:27.951Z,65.45
2022-12-25T19:50:54.687Z,70.43
2022-12-25T19:53:21.474Z,67.03
2022-12-25T19:55:48.870Z,57.45
2022-12-25T19:58:15.422Z,60.40
2022-12-25T20:00:42.057Z,51.75
2022-12-25T20:03:10.739Z,47.17
2022-12-25T20:05:37.302Z,46.20
2022-12-25T20:08:03.926Z,41.25
2022-12-25T20:10:30.557Z,46.42
2022-12-25T20:12:59.555Z,42.95
2022-12-25T20:18:46.542Z,48.00
2022-12-25T20:24:03.108Z,39.45
2022-12-25T20:26:30.781Z,40.17
2022-12-25T20:28:57.800Z,39.75
2022-12-25T20:34:33.659Z,37.65
2022-12-25T20:39:46.680Z,38.15
2022-12-25T20:42:13.139Z,43.05
2022-12-25T20:44:43.826Z,40.60
2022-12-25T20:47:14.546Z,47.83
2022-12-25T20:49:41.827Z,44.03
2022-12-25T20:52:10.602Z,48.42
2022-12-25T20:54:37.182Z,44.38
2022-12-25T20:57:04.776Z,41.28
2022-12-25T20:59:37.207Z,46.55
2022-12-25T21:02:11.346Z,43.50
2022-12-25T21:04:56.223Z,45.08
2022-12-25T21:07:31.706Z,41.55
2022-12-25T21:10:04.313Z,44.90
2022-12-25T21:12:30.948Z,43.45
2022-12-25T21:14:57.442Z,53.88
2022-12-25T21:17:27.397Z,48.92
2022-12-25T21:20:00.645Z,41.80
2022-12-25T21:22:27.177Z,47.50
2022-12-25T21:24:53.729Z,50.05
2022-12-25T21:27:22.402Z,68.78
2022-12-25T21:29:50.776Z,68.93
2022-12-25T21:32:17.297Z,58.78
2022-12-25T21:34:43.844Z,80.45
2022-12-25T21:37:10.389Z,80.78
2022-12-25T21:39:39.327Z,72.45
2022-12-25T21:42:05.916Z,77.60
2022-12-25T21:44:33.943Z,78.63
2022-12-25T21:47:12.433Z,82.47
2022-12-25T21:50:10.255Z,81.85
2022-12-25T21:52:40.127Z,82.03
2022-12-25T21:55:06.817Z,90.15
2022-12-25T21:57:39.913Z,78.90
2022-12-25T22:03:36.241Z,87.20
2022-12-25T22:06:03.763Z,90.88
2022-12-25T22:08:33.801Z,87.43
2022-12-25T22:13:53.853Z,91.03
2022-12-25T22:16:27.218Z,83.20
2022-12-25T22:18:57.080Z,82.55
2022-12-25T22:21:33.440Z,72.47
2022-12-25T22:24:30.655Z,84.45
2022-12-25T22:27:03.847Z,74.72
2022-12-25T22:29:37.475Z,84.65
2022-12-25T22:40:18.895Z,67.15
2022-12-25T22:42:45.497Z,70.80
2022-12-25T22:45:19.191Z,68.82
2022-12-25T22:50:32.912Z,69.13
2022-12-25T22:53:06.873Z,72.07
2022-12-25T22:55:33.463Z,69.15
2022-12-25T22:58:02.857Z,66.20
2022-12-25T23:00:54.515Z,70.40
2022-12-25T23:03:21.255Z,65.78
2022-12-25T23:05:53.398Z,70.63
2022-12-25T23:08:31.601Z,74.50
2022-12-25T23:11:04.617Z,75.75
2022-12-25T23:13:37.788Z,70.45
2022-12-25T23:16:04.940Z,68.30
2022-12-25T23:18:31.540Z,58.20
2022-12-25T23:21:00.978Z,67.30
2022-12-25T23:24:00.851Z,63.60
2022-12-25T23:26:38.496Z,65.78
2022-12-25T23:29:05.128Z,67.45
2022-12-25T23:31:34.427Z,61.85
2022-12-25T23:34:04.166Z,65.72
2022-12-25T23:36:40.172Z,66.82
2022-12-25T23:39:12.786Z,64.30
2022-12-25T23:44:58.594Z,63.70
2022-12-25T23:47:25.189Z,68.82
2022-12-25T23:49:54.521Z,62.90
2022-12-25T23:52:21.263Z,66.80
2022-12-25T23:54:51.598Z,67.05
2022-12-25T23:57:47.749Z,68.20
